Time;durP1;ratioP1;P1;durP2;ratioP2;P2;SDS_P1;SDS_P2;PMS_P1;PMS_P2;Temp;Humidity;BMP_temperature;BMP_pressure;BME280_temperature;BME280_humidity;BME280_pressure;Samples;Min_cycle;Max_cycle;Signal;HPM_P1;HPM_P2
2021/04/29 00:02:06;;;;;;;2.85;1.77;;;29.20;93.10;;;;;;5090887;28;20243;-54
2021/04/29 00:04:37;;;;;;;2.00;1.73;;;29.20;93.10;;;;;;5091362;28;20767;-55
2021/04/29 00:07:07;;;;;;;2.85;2.00;;;29.20;93.10;;;;;;5091781;28;20240;-52
2021/04/29 00:09:38;;;;;;;2.72;2.22;;;29.20;93.10;;;;;;5086265;28;20201;-56
2021/04/29 00:12:09;;;;;;;2.58;2.10;;;29.20;93.20;;;;;;5090621;28;20321;-53
2021/04/29 00:14:39;;;;;;;2.22;2.03;;;29.20;93.20;;;;;;5090529;28;20278;-54
2021/04/29 00:17:11;;;;;;;5.28;2.38;;;29.30;93.30;;;;;;5091018;28;20201;-53
2021/04/29 00:19:41;;;;;;;2.53;2.33;;;29.30;93.30;;;;;;5090268;28;20200;-52
2021/04/29 00:22:12;;;;;;;2.88;2.33;;;29.30;93.20;;;;;;5090401;28;20612;-51
2021/04/29 00:24:42;;;;;;;2.08;1.88;;;29.30;93.20;;;;;;5091256;28;20679;-53
2021/04/29 00:27:13;;;;;;;2.60;2.40;;;29.30;93.30;;;;;;5090101;28;20709;-52
2021/04/29 00:29:44;;;;;;;3.78;2.22;;;29.30;93.40;;;;;;5090114;28;20643;-50
2021/04/29 00:32:16;;;;;;;2.67;2.20;;;29.40;93.50;;;;;;5089758;28;20208;-49
2021/04/29 00:34:46;;;;;;;2.28;2.08;;;29.40;93.50;;;;;;5090159;28;20285;-52
2021/04/29 00:37:16;;;;;;;2.13;1.92;;;29.40;93.60;;;;;;5090321;28;20208;-51
2021/04/29 00:39:47;;;;;;;2.60;2.05;;;29.40;93.50;;;;;;5090539;28;20197;-53
2021/04/29 00:42:17;;;;;;;3.28;2.38;;;29.40;93.60;;;;;;5095083;28;20210;-51
2021/04/29 00:44:48;;;;;;;3.15;2.38;;;29.40;93.60;;;;;;5095168;28;20637;-54
2021/04/29 00:47:20;;;;;;;2.40;1.98;;;29.50;93.80;;;;;;5094993;28;20216;-51
2021/04/29 00:49:51;;;;;;;3.22;2.10;;;29.50;93.90;;;;;;5031723;28;20300;-52
2021/04/29 00:52:22;;;;;;;4.72;2.30;;;29.50;93.80;;;;;;5031634;28;20721;-53
2021/04/29 00:54:52;;;;;;;2.42;2.10;;;29.50;93.70;;;;;;5031526;28;20710;-52
2021/04/29 00:57:24;;;;;;;2.10;1.90;;;29.60;93.80;;;;;;5031995;28;20202;-51
2021/04/29 00:59:54;;;;;;;1.90;1.80;;;29.60;93.80;;;;;;5031753;28;20246;-49
2021/04/29 01:02:26;;;;;;;2.08;1.90;;;29.60;93.70;;;;;;5031700;28;20231;-51
2021/04/29 01:04:58;;;;;;;1.90;1.80;;;29.60;93.80;;;;;;5020140;28;20237;-51
2021/04/29 01:07:29;;;;;;;2.25;2.03;;;29.60;93.80;;;;;;5031812;28;20313;-50
2021/04/29 01:10:03;;;;;;;2.17;1.92;;;29.70;93.90;;;;;;5031901;28;20203;-51
2021/04/29 01:12:35;;;;;;;2.42;1.90;;;29.70;94.00;;;;;;5031332;28;20275;-50
2021/04/29 01:15:07;;;;;;;3.53;2.00;;;29.80;94.00;;;;;;5031346;28;21283;-51
2021/04/29 01:17:39;;;;;;;2.33;2.13;;;29.80;94.00;;;;;;5032028;28;20234;-53
2021/04/29 01:20:11;;;;;;;2.30;2.10;;;29.80;94.00;;;;;;5040835;28;20233;-51
2021/04/29 01:22:42;;;;;;;2.70;2.10;;;29.80;94.00;;;;;;5074069;28;20665;-55
2021/04/29 01:25:14;;;;;;;3.30;1.80;;;29.90;94.10;;;;;;5074433;28;20205;-55
2021/04/29 01:27:46;;;;;;;2.10;1.90;;;29.90;94.00;;;;;;5074708;28;20217;-54
2021/04/29 01:30:17;;;;;;;1.92;1.70;;;29.90;93.90;;;;;;5030906;28;20209;-51
2021/04/29 01:32:47;;;;;;;2.42;1.73;;;29.90;93.80;;;;;;5030987;28;20962;-51
2021/04/29 01:35:18;;;;;;;1.65;1.52;;;29.90;93.70;;;;;;5031092;28;20230;-51
2021/04/29 01:37:48;;;;;;;2.20;2.00;;;29.90;93.60;;;;;;5031595;28;20207;-53
2021/04/29 01:40:18;;;;;;;2.58;2.33;;;30.00;93.40;;;;;;5030757;28;20199;-50
2021/04/29 01:42:50;;;;;;;3.03;1.65;;;30.00;93.40;;;;;;5030405;28;20211;-53
2021/04/29 01:45:20;;;;;;;2.00;1.80;;;30.00;93.30;;;;;;5027136;28;20294;-50
2021/04/29 01:47:51;;;;;;;2.10;1.88;;;30.00;93.30;;;;;;5030796;28;20222;-49
2021/04/29 01:50:22;;;;;;;2.17;1.98;;;30.00;93.30;;;;;;5027727;28;20203;-48
2021/04/29 01:52:53;;;;;;;3.20;2.10;;;30.00;93.30;;;;;;5029878;28;20275;-51
2021/04/29 01:55:23;;;;;;;2.30;2.10;;;30.00;93.30;;;;;;5061518;28;20269;-48
2021/04/29 01:57:55;;;;;;;4.57;2.05;;;30.10;93.40;;;;;;5029991;28;20298;-49
2021/04/29 02:00:26;;;;;;;2.10;1.92;;;30.00;93.30;;;;;;5030786;28;20767;-48
2021/04/29 02:02:56;;;;;;;2.30;2.10;;;30.10;93.30;;;;;;5030067;28;20242;-52
2021/04/29 02:05:27;;;;;;;2.55;2.05;;;30.10;93.20;;;;;;5029743;28;20207;-50
2021/04/29 02:07:58;;;;;;;2.83;2.63;;;30.10;93.10;;;;;;5026503;28;20257;-50
2021/04/29 02:10:28;;;;;;;2.60;2.40;;;30.10;93.00;;;;;;5029436;28;20286;-48
2021/04/29 02:13:00;;;;;;;2.50;2.15;;;30.10;93.00;;;;;;5029836;28;20233;-52
2021/04/29 02:15:32;;;;;;;2.33;2.13;;;30.10;92.90;;;;;;5029687;28;20206;-47
2021/04/29 02:18:05;;;;;;;4.63;2.38;;;30.10;92.80;;;;;;5028876;28;20199;-49
2021/04/29 02:20:37;;;;;;;2.53;2.33;;;30.10;92.70;;;;;;5029540;28;20219;-50
2021/04/29 02:23:09;;;;;;;4.07;3.75;;;30.10;92.50;;;;;;5063046;28;20205;-49
2021/04/29 02:25:40;;;;;;;3.00;2.80;;;30.10;92.40;;;;;;5071523;28;20205;-50
2021/04/29 02:28:11;;;;;;;2.22;2.03;;;30.10;92.30;;;;;;5071596;28;20735;-48
2021/04/29 02:30:43;;;;;;;1.85;1.75;;;30.10;92.30;;;;;;5072016;28;20204;-51
2021/04/29 02:33:13;;;;;;;1.52;1.42;;;30.10;92.20;;;;;;5072850;28;20201;-49
2021/04/29 02:35:44;;;;;;;1.70;1.55;;;30.10;92.20;;;;;;5072610;28;20755;-50
2021/04/29 02:38:16;;;;;;;1.95;1.85;;;30.10;92.10;;;;;;5072237;28;20281;-53
2021/04/29 02:40:46;;;;;;;1.52;1.42;;;30.00;91.90;;;;;;5068893;28;20198;-51
2021/04/29 02:43:18;;;;;;;1.75;1.65;;;30.00;92.00;;;;;;5072402;28;20255;-49
2021/04/29 02:45:48;;;;;;;1.88;1.67;;;30.00;92.00;;;;;;5072886;28;20713;-51
2021/04/29 02:48:19;;;;;;;2.67;1.50;;;30.00;92.00;;;;;;5072140;28;20340;-48
2021/04/29 02:50:49;;;;;;;1.95;1.70;;;30.00;92.10;;;;;;5029479;28;20207;-49
2021/04/29 02:53:20;;;;;;;1.50;1.40;;;30.00;92.10;;;;;;5029398;28;20206;-50
2021/04/29 02:55:51;;;;;;;3.30;3.00;;;30.00;92.10;;;;;;5029270;28;20217;-49
2021/04/29 02:58:22;;;;;;;2.55;2.35;;;30.00;92.00;;;;;;5029700;28;20623;-50
2021/04/29 03:00:54;;;;;;;2.40;2.20;;;30.00;92.10;;;;;;5028578;28;20214;-52
2021/04/29 03:03:25;;;;;;;2.20;2.10;;;29.90;92.10;;;;;;5029209;28;20321;-49
2021/04/29 03:05:55;;;;;;;2.53;1.92;;;30.00;92.10;;;;;;5018832;28;20655;-49
2021/04/29 03:08:26;;;;;;;2.50;2.22;;;30.00;92.10;;;;;;4970627;28;20232;-50
2021/04/29 03:10:56;;;;;;;2.55;2.30;;;29.90;92.00;;;;;;4970450;28;20205;-50
2021/04/29 03:13:28;;;;;;;2.38;2.17;;;29.90;92.00;;;;;;4970626;28;20895;-52
2021/04/29 03:15:58;;;;;;;2.53;2.33;;;29.90;92.10;;;;;;4970509;28;20216;-51
2021/04/29 03:18:29;;;;;;;2.22;2.03;;;29.90;92.20;;;;;;4970452;28;20209;-50
2021/04/29 03:21:00;;;;;;;2.72;2.53;;;30.00;92.40;;;;;;4979170;28;20732;-50
2021/04/29 03:23:30;;;;;;;2.63;2.42;;;30.00;92.40;;;;;;5028627;28;20276;-47
2021/04/29 03:26:01;;;;;;;3.10;2.80;;;30.00;92.40;;;;;;5029081;28;20723;-50
2021/04/29 03:28:32;;;;;;;3.35;3.03;;;30.00;92.50;;;;;;5029442;28;20252;-48
2021/04/29 03:31:03;;;;;;;2.90;2.63;;;30.00;92.60;;;;;;5029495;28;20341;-52
2021/04/29 03:33:34;;;;;;;3.08;2.88;;;30.00;92.70;;;;;;5028821;28;20210;-51
2021/04/29 03:36:05;;;;;;;3.13;2.83;;;30.10;92.70;;;;;;5023043;28;20222;-50
2021/04/29 03:38:36;;;;;;;2.83;2.63;;;30.10;92.80;;;;;;5034277;28;20278;-52
2021/04/29 03:41:06;;;;;;;3.20;2.63;;;30.10;92.80;;;;;;5068095;28;20236;-48
2021/04/29 03:43:37;;;;;;;3.05;2.85;;;30.10;92.80;;;;;;5068399;28;20216;-48
2021/04/29 03:46:08;;;;;;;2.95;2.38;;;30.10;92.80;;;;;;5069219;28;20207;-52
2021/04/29 03:48:38;;;;;;;2.50;2.30;;;30.20;92.90;;;;;;5069133;28;20719;-52
2021/04/29 03:51:10;;;;;;;2.60;2.40;;;30.20;92.90;;;;;;5069673;28;20209;-53
2021/04/29 03:53:41;;;;;;;2.20;2.00;;;30.20;92.90;;;;;;5069412;28;20273;-49
2021/04/29 03:56:11;;;;;;;2.40;1.95;;;30.20;92.80;;;;;;5067926;28;20679;-48
2021/04/29 03:58:43;;;;;;;3.60;2.13;;;30.30;92.80;;;;;;5065608;28;20201;-54
2021/04/29 04:01:13;;;;;;;1.80;1.70;;;30.30;92.80;;;;;;5069430;28;20198;-52
2021/04/29 04:03:44;;;;;;;1.92;1.80;;;30.30;92.80;;;;;;5087831;28;20244;-53
2021/04/29 04:06:14;;;;;;;1.50;1.40;;;30.30;92.80;;;;;;5089721;28;20288;-48
2021/04/29 04:08:45;;;;;;;1.33;1.23;;;30.30;92.50;;;;;;5087181;28;20220;-48
2021/04/29 04:11:15;;;;;;;1.30;1.20;;;30.40;92.30;;;;;;5089580;28;20950;-49
2021/04/29 04:13:46;;;;;;;1.48;1.00;;;30.40;92.20;;;;;;5089641;28;20200;-48
2021/04/29 04:16:17;;;;;;;1.10;1.00;;;30.40;92.10;;;;;;5089311;28;20238;-49
2021/04/29 04:18:47;;;;;;;1.17;1.10;;;30.50;92.20;;;;;;5088990;28;20245;-49
2021/04/29 04:21:17;;;;;;;0.80;0.80;;;30.50;92.00;;;;;;5089171;28;20695;-50
2021/04/29 04:23:48;;;;;;;1.05;0.80;;;30.50;91.90;;;;;;5085313;28;20735;-50
2021/04/29 04:26:18;;;;;;;0.90;0.90;;;30.50;92.00;;;;;;5089288;28;20315;-49
2021/04/29 04:28:50;;;;;;;0.77;0.77;;;30.50;91.90;;;;;;5089735;28;20213;-49
2021/04/29 04:31:21;;;;;;;1.50;1.05;;;30.50;91.90;;;;;;5089204;28;20234;-49
2021/04/29 04:33:52;;;;;;;0.93;0.93;;;30.60;92.00;;;;;;5089704;28;20192;-50
2021/04/29 04:36:22;;;;;;;1.05;0.95;;;30.60;92.00;;;;;;5089243;28;21260;-49
2021/04/29 04:38:53;;;;;;;1.02;0.93;;;30.60;92.10;;;;;;5089633;28;20201;-52
2021/04/29 04:41:23;;;;;;;2.30;1.20;;;30.70;92.10;;;;;;5089186;28;20209;-50
2021/04/29 04:43:55;;;;;;;1.13;1.08;;;30.70;92.00;;;;;;5089063;28;20414;-52
2021/04/29 04:46:25;;;;;;;1.20;1.10;;;30.70;91.80;;;;;;5089097;28;20207;-51
2021/04/29 04:48:55;;;;;;;1.10;0.90;;;30.70;91.80;;;;;;5088899;28;20212;-54
2021/04/29 04:51:26;;;;;;;1.65;1.20;;;30.80;91.90;;;;;;5089767;28;20264;-49
2021/04/29 04:53:57;;;;;;;1.58;1.10;;;30.80;91.80;;;;;;5089048;28;20587;-52
2021/04/29 04:56:28;;;;;;;1.20;1.10;;;30.80;91.80;;;;;;5088992;28;20267;-51
2021/04/29 04:59:00;;;;;;;1.10;1.00;;;30.80;91.80;;;;;;5089424;28;20257;-53
2021/04/29 05:01:30;;;;;;;1.00;0.98;;;30.90;91.90;;;;;;5088978;28;20287;-50
2021/04/29 05:04:00;;;;;;;1.10;1.00;;;30.90;91.90;;;;;;5089076;28;20205;-49
2021/04/29 05:06:31;;;;;;;1.55;1.15;;;30.90;91.90;;;;;;5088835;28;20285;-49
2021/04/29 05:09:01;;;;;;;2.28;1.40;;;31.00;92.00;;;;;;5089014;28;20290;-51
2021/04/29 05:11:32;;;;;;;1.48;1.25;;;31.00;92.00;;;;;;5089815;28;20193;-51
2021/04/29 05:14:04;;;;;;;2.30;1.58;;;31.00;91.90;;;;;;5089810;28;20211;-51
2021/04/29 05:16:35;;;;;;;1.90;1.48;;;31.10;91.80;;;;;;5086179;28;20933;-50
2021/04/29 05:19:05;;;;;;;1.77;1.60;;;31.10;91.60;;;;;;5077953;28;20196;-51
2021/04/29 05:21:36;;;;;;;2.17;1.70;;;31.10;91.60;;;;;;5089617;28;20197;-50
2021/04/29 05:24:07;;;;;;;1.58;1.48;;;31.20;91.70;;;;;;5090364;28;20254;-51
2021/04/29 05:26:37;;;;;;;1.35;1.23;;;31.20;91.80;;;;;;5092798;28;20762;-51
2021/04/29 05:29:09;;;;;;;1.83;1.35;;;31.20;91.80;;;;;;5093268;28;20234;-53
2021/04/29 05:31:39;;;;;;;1.80;1.60;;;31.30;91.80;;;;;;5093456;28;20197;-52
2021/04/29 05:34:10;;;;;;;2.58;2.03;;;31.30;91.60;;;;;;5093150;28;20239;-51
2021/04/29 05:36:41;;;;;;;3.63;2.20;;;31.40;91.60;;;;;;5092876;28;20577;-49
2021/04/29 05:39:12;;;;;;;2.45;2.08;;;31.40;91.60;;;;;;5093039;28;20250;-50
2021/04/29 05:41:43;;;;;;;2.20;1.60;;;31.40;91.30;;;;;;5092841;28;20266;-53
2021/04/29 05:44:14;;;;;;;1.95;1.60;;;31.40;91.30;;;;;;5092760;28;20200;-49
2021/04/29 05:46:45;;;;;;;2.28;2.08;;;31.50;91.30;;;;;;5092761;28;20201;-52
2021/04/29 05:49:15;;;;;;;2.85;1.90;;;31.50;91.00;;;;;;5093068;28;20225;-55
2021/04/29 05:51:45;;;;;;;2.35;1.77;;;31.50;91.10;;;;;;5092665;28;20596;-53
2021/04/29 05:54:16;;;;;;;1.67;1.58;;;31.60;91.00;;;;;;5092941;28;20664;-49
2021/04/29 05:56:47;;;;;;;2.53;1.98;;;31.60;90.80;;;;;;5093091;28;20237;-53
2021/04/29 05:59:18;;;;;;;2.38;2.00;;;31.60;90.80;;;;;;5092287;28;20199;-50
2021/04/29 06:01:48;;;;;;;2.83;1.77;;;31.60;90.90;;;;;;5092274;28;20200;-49
2021/04/29 06:04:38;;;;;;;2.78;2.25;;;31.70;90.90;;;;;;5092822;28;20299;-52
2021/04/29 06:07:09;;;;;;;3.53;2.63;;;31.70;91.10;;;;;;5092594;28;20864;-53
2021/04/29 06:09:39;;;;;;;2.88;2.40;;;31.70;91.20;;;;;;5092089;28;20196;-51
2021/04/29 06:12:11;;;;;;;3.80;2.45;;;31.80;91.30;;;;;;5092090;28;20236;-49
2021/04/29 06:14:43;;;;;;;3.15;2.40;;;31.80;91.40;;;;;;5092186;28;20315;-53
2021/04/29 06:17:14;;;;;;;2.45;2.13;;;31.90;91.30;;;;;;5092172;28;20560;-50
2021/04/29 06:19:44;;;;;;;2.47;2.22;;;31.90;91.30;;;;;;5092197;28;20197;-52
2021/04/29 06:22:15;;;;;;;2.20;2.00;;;31.90;91.20;;;;;;5092562;28;20279;-48
2021/04/29 06:24:45;;;;;;;2.70;2.08;;;32.00;91.10;;;;;;5092322;28;20203;-48
2021/04/29 06:27:16;;;;;;;2.47;1.50;;;32.10;91.00;;;;;;5092589;28;20200;-51
2021/04/29 06:29:47;;;;;;;2.35;1.48;;;32.10;90.90;;;;;;5092555;28;20201;-51
2021/04/29 06:32:18;;;;;;;2.42;1.60;;;32.10;90.80;;;;;;5092234;28;20662;-51
2021/04/29 06:34:48;;;;;;;1.70;1.50;;;32.10;90.50;;;;;;5092199;28;20237;-50
2021/04/29 06:37:19;;;;;;;2.65;1.55;;;32.10;90.30;;;;;;5091711;28;20284;-51
2021/04/29 06:39:50;;;;;;;2.92;1.70;;;32.20;90.40;;;;;;5092305;28;20224;-52
2021/04/29 06:42:21;;;;;;;2.03;1.50;;;32.20;90.30;;;;;;5091484;28;20869;-51
2021/04/29 06:44:57;;;;;;;2.83;1.38;;;32.30;90.20;;;;;;5091432;28;20204;-52
2021/04/29 06:47:31;;;;;;;1.63;1.40;;;32.30;90.00;;;;;;5091953;28;20249;-53
2021/04/29 06:50:02;;;;;;;1.92;1.48;;;32.40;90.20;;;;;;5092041;28;20196;-51
2021/04/29 06:52:32;;;;;;;1.75;1.50;;;32.40;90.00;;;;;;5091565;28;20210;-49
2021/04/29 06:55:02;;;;;;;1.48;1.20;;;32.40;90.00;;;;;;5091536;28;20196;-50
2021/04/29 06:57:33;;;;;;;1.30;1.20;;;32.40;89.60;;;;;;5092201;28;20721;-50
2021/04/29 07:00:05;;;;;;;3.90;1.40;;;32.50;89.90;;;;;;5091413;28;20204;-51
2021/04/29 07:02:35;;;;;;;1.65;1.35;;;32.50;88.80;;;;;;5090861;28;20266;-53
2021/04/29 07:05:06;;;;;;;1.90;1.30;;;32.50;89.10;;;;;;5091495;28;20200;-52
2021/04/29 07:07:37;;;;;;;1.98;1.30;;;32.60;88.70;;;;;;5091379;28;20223;-53
2021/04/29 07:10:08;;;;;;;1.80;1.30;;;32.60;88.50;;;;;;5091432;28;20210;-48
2021/04/29 07:12:48;;;;;;;3.65;1.40;;;32.60;88.10;;;;;;5091278;28;20205;-51
2021/04/29 07:15:19;;;;;;;1.73;1.40;;;32.70;88.30;;;;;;5090826;28;20317;-51
2021/04/29 07:17:50;;;;;;;2.60;1.20;;;32.70;89.00;;;;;;5091588;28;20193;-50
2021/04/29 07:20:21;;;;;;;1.73;1.00;;;32.80;88.00;;;;;;5091646;28;20236;-51
2021/04/29 07:22:51;;;;;;;1.55;1.10;;;32.80;87.70;;;;;;5090841;28;20201;-51
2021/04/29 07:25:23;;;;;;;1.17;1.08;;;32.80;87.70;;;;;;5090980;28;20204;-51
2021/04/29 07:27:53;;;;;;;1.08;0.95;;;32.90;87.40;;;;;;5090586;28;20282;-54
2021/04/29 07:30:25;;;;;;;1.50;1.02;;;33.00;86.70;;;;;;5090782;28;20660;-50
2021/04/29 07:32:56;;;;;;;1.27;0.90;;;33.00;86.50;;;;;;5091202;28;20196;-52
2021/04/29 07:35:27;;;;;;;2.65;1.08;;;33.00;86.50;;;;;;5090461;28;20223;-49
2021/04/29 07:37:58;;;;;;;1.63;1.05;;;33.00;85.70;;;;;;5088777;28;20679;-50
2021/04/29 07:40:28;;;;;;;2.35;1.48;;;33.10;85.60;;;;;;5089649;28;20215;-51
2021/04/29 07:42:59;;;;;;;1.33;1.00;;;33.10;84.00;;;;;;5090566;28;20205;-49
2021/04/29 07:45:31;;;;;;;1.60;1.08;;;33.20;83.90;;;;;;5090809;28;20246;-51
2021/04/29 07:48:01;;;;;;;1.75;1.00;;;33.20;84.20;;;;;;5089696;28;20783;-49
2021/04/29 07:50:32;;;;;;;1.08;0.98;;;33.20;84.40;;;;;;5089482;28;20287;-53
2021/04/29 07:53:03;;;;;;;1.35;0.90;;;33.20;84.40;;;;;;5090339;28;20276;-52
2021/04/29 07:55:33;;;;;;;1.00;0.80;;;33.20;83.90;;;;;;5090669;28;20216;-48
2021/04/29 07:58:03;;;;;;;1.52;0.93;;;33.30;84.10;;;;;;5089236;28;20693;-52
2021/04/29 08:00:55;;;;;;;1.83;1.10;;;33.40;84.20;;;;;;5089375;28;20219;-50
2021/04/29 08:03:25;;;;;;;1.65;1.10;;;33.40;83.90;;;;;;5090514;28;20232;-54
2021/04/29 08:05:56;;;;;;;1.33;0.98;;;33.40;83.00;;;;;;5089958;28;20192;-54
2021/04/29 08:08:26;;;;;;;1.58;0.85;;;33.50;82.80;;;;;;5089273;28;20256;-52
2021/04/29 08:10:56;;;;;;;1.95;1.00;;;33.60;82.70;;;;;;5089648;28;20318;-50
2021/04/29 08:13:29;;;;;;;0.82;0.82;;;33.60;82.50;;;;;;5089428;28;20197;-53
2021/04/29 08:16:00;;;;;;;1.20;1.00;;;33.70;81.90;;;;;;5089595;28;20279;-54
2021/04/29 08:18:31;;;;;;;1.00;0.90;;;33.70;81.00;;;;;;5089591;28;20189;-52
2021/04/29 08:21:01;;;;;;;1.20;1.00;;;33.80;80.70;;;;;;5089310;28;20238;-48
2021/04/29 08:23:32;;;;;;;1.20;1.10;;;33.80;79.50;;;;;;5087435;28;20255;-51
2021/04/29 08:26:02;;;;;;;1.00;0.90;;;33.80;79.80;;;;;;5090343;28;20212;-52
2021/04/29 08:28:32;;;;;;;1.70;0.95;;;33.90;80.30;;;;;;5090210;28;20213;-50
2021/04/29 08:31:04;;;;;;;1.05;0.73;;;33.90;80.30;;;;;;5089337;28;20276;-49
2021/04/29 08:33:34;;;;;;;0.80;0.80;;;33.90;80.30;;;;;;5088099;28;20197;-51
2021/04/29 08:36:06;;;;;;;1.75;1.00;;;34.00;80.60;;;;;;5088820;28;20232;-49
2021/04/29 08:38:36;;;;;;;1.33;0.90;;;34.10;80.50;;;;;;5089880;28;20275;-48
2021/04/29 08:41:07;;;;;;;1.70;1.10;;;34.10;80.40;;;;;;5089636;28;20253;-52
2021/04/29 08:43:38;;;;;;;1.17;1.08;;;34.20;80.60;;;;;;5088197;28;20253;-51
2021/04/29 08:46:09;;;;;;;1.38;1.27;;;34.30;80.30;;;;;;5089224;28;20204;-49
2021/04/29 08:48:40;;;;;;;1.55;0.77;;;34.40;80.10;;;;;;5090096;28;20209;-51
2021/04/29 08:51:10;;;;;;;1.63;0.77;;;34.50;79.30;;;;;;5086923;28;20200;-49
2021/04/29 08:53:40;;;;;;;1.33;1.20;;;34.60;78.80;;;;;;5089606;28;20228;-51
2021/04/29 08:56:11;;;;;;;1.98;0.95;;;34.70;78.50;;;;;;5088545;28;20193;-51
2021/04/29 08:58:41;;;;;;;1.02;0.90;;;34.70;77.90;;;;;;5090225;28;20197;-49
2021/04/29 09:01:13;;;;;;;1.45;0.98;;;34.80;77.60;;;;;;5093361;28;20197;-54
2021/04/29 09:03:44;;;;;;;1.30;1.00;;;34.90;76.70;;;;;;5092136;28;20304;-53
2021/04/29 09:06:15;;;;;;;0.85;0.85;;;34.90;76.80;;;;;;5090543;28;20275;-52
2021/04/29 09:08:46;;;;;;;0.85;0.82;;;35.00;76.50;;;;;;5093607;28;20209;-52
2021/04/29 09:11:17;;;;;;;1.38;1.00;;;35.00;76.50;;;;;;5092727;28;20193;-49
2021/04/29 09:13:55;;;;;;;0.85;0.85;;;35.00;76.60;;;;;;5093490;28;20201;-52
2021/04/29 09:16:37;;;;;;;1.13;0.90;;;35.10;76.30;;;;;;5089617;28;20912;-53
2021/04/29 09:19:18;;;;;;;3.03;1.23;;;35.10;76.10;;;;;;5029754;28;20198;-52
2021/04/29 09:21:48;;;;;;;1.08;0.88;;;35.20;75.80;;;;;;5030327;28;20369;-53
2021/04/29 09:24:19;;;;;;;1.30;1.20;;;35.20;75.50;;;;;;5031399;28;20466;-51
2021/04/29 09:26:49;;;;;;;1.50;1.13;;;35.20;75.40;;;;;;5029855;28;20631;-52
2021/04/29 09:29:20;;;;;;;1.38;1.17;;;35.20;76.10;;;;;;5030311;28;20294;-52
2021/04/29 09:31:52;;;;;;;1.50;1.40;;;35.20;74.70;;;;;;5041227;28;20210;-53
2021/04/29 09:34:22;;;;;;;1.23;1.13;;;35.20;74.60;;;;;;5047396;28;20206;-49
2021/04/29 09:36:53;;;;;;;1.75;1.20;;;35.20;74.60;;;;;;5033757;28;20291;-53
2021/04/29 09:39:23;;;;;;;0.90;0.80;;;35.20;74.80;;;;;;5025026;28;20211;-50
2021/04/29 09:41:54;;;;;;;2.30;1.00;;;35.20;75.00;;;;;;5031050;28;20290;-53
2021/04/29 09:44:25;;;;;;;1.20;1.10;;;35.20;74.50;;;;;;5079858;28;20205;-52
2021/04/29 09:47:00;;;;;;;1.27;1.00;;;35.20;74.70;;;;;;5091739;28;21509;-53
2021/04/29 09:49:32;;;;;;;1.45;0.90;;;35.20;74.50;;;;;;5091981;28;20622;-51
2021/04/29 09:52:03;;;;;;;1.20;0.95;;;35.20;74.20;;;;;;5092020;28;20196;-48
2021/04/29 09:54:34;;;;;;;2.15;0.98;;;35.20;74.30;;;;;;5092645;28;20566;-51
2021/04/29 09:57:06;;;;;;;1.10;0.95;;;35.20;74.40;;;;;;5092631;28;20201;-52
2021/04/29 09:59:41;;;;;;;1.55;1.00;;;35.20;74.40;;;;;;5092355;28;20212;-50
2021/04/29 10:02:13;;;;;;;1.10;1.00;;;35.10;74.20;;;;;;5092335;28;20240;-53
2021/04/29 10:04:44;;;;;;;1.27;1.10;;;35.10;73.80;;;;;;5092424;28;20719;-51
2021/04/29 10:07:20;;;;;;;1.90;1.33;;;35.10;73.70;;;;;;5091968;28;20197;-48
2021/04/29 10:09:50;;;;;;;2.10;1.13;;;35.10;73.70;;;;;;5091217;28;20216;-47
2021/04/29 10:12:22;;;;;;;1.95;1.05;;;35.00;73.70;;;;;;5091358;28;20201;-51
2021/04/29 10:14:52;;;;;;;1.30;1.20;;;35.00;74.10;;;;;;5091840;28;20203;-49
2021/04/29 10:17:24;;;;;;;1.80;1.08;;;34.90;74.00;;;;;;5091718;28;20200;-52
2021/04/29 10:19:56;;;;;;;2.08;1.30;;;34.90;74.20;;;;;;5091752;28;20205;-54
2021/04/29 10:22:26;;;;;;;1.35;1.10;;;34.90;74.30;;;;;;5092168;28;20219;-49
2021/04/29 10:24:57;;;;;;;1.23;1.05;;;34.90;74.60;;;;;;5091895;28;20665;-48
2021/04/29 10:27:27;;;;;;;1.42;1.10;;;34.80;74.50;;;;;;5091959;28;20203;-52
2021/04/29 10:30:05;;;;;;;1.40;1.20;;;34.80;74.80;;;;;;5091103;28;20208;-50
2021/04/29 10:32:36;;;;;;;1.77;1.60;;;34.90;76.00;;;;;;5091314;28;20224;-52
2021/04/29 10:35:17;;;;;;;1.67;1.20;;;35.10;76.70;;;;;;5090939;28;20298;-50
2021/04/29 10:37:57;;;;;;;1.20;1.02;;;35.30;75.20;;;;;;5091316;28;20207;-51
2021/04/29 10:40:35;;;;;;;1.67;1.20;;;35.50;75.20;;;;;;5090051;28;20192;-49
2021/04/29 10:43:06;;;;;;;1.83;1.10;;;35.70;75.10;;;;;;5081796;28;20208;-48
2021/04/29 10:45:36;;;;;;;1.67;0.90;;;35.90;75.20;;;;;;5092202;28;20238;-52
2021/04/29 10:48:09;;;;;;;1.15;0.90;;;36.20;75.00;;;;;;5091759;28;20201;-51
2021/04/29 10:50:46;;;;;;;1.48;1.10;;;36.60;73.90;;;;;;5092065;28;20593;-49
2021/04/29 10:53:27;;;;;;;1.40;1.25;;;36.80;71.80;;;;;;5081397;28;20200;-48
2021/04/29 10:56:02;;;;;;;1.67;1.23;;;36.90;70.60;;;;;;5091781;28;20224;-51
2021/04/29 10:58:32;;;;;;;1.48;1.38;;;37.00;69.10;;;;;;5091034;28;20735;-51
2021/04/29 11:01:05;;;;;;;1.42;1.30;;;37.00;68.60;;;;;;5091631;28;20309;-51
2021/04/29 11:03:37;;;;;;;2.97;1.35;;;36.90;68.30;;;;;;5089992;28;20246;-52
2021/04/29 11:06:13;;;;;;;1.48;1.33;;;36.70;68.00;;;;;;5090470;28;20287;-52
2021/04/29 11:08:47;;;;;;;2.00;1.63;;;36.50;68.20;;;;;;5090732;28;20261;-51
2021/04/29 11:11:25;;;;;;;2.15;1.30;;;36.40;68.60;;;;;;5087983;28;20201;-49
2021/04/29 11:14:00;;;;;;;1.38;1.00;;;36.20;68.90;;;;;;5090659;28;20216;-49
2021/04/29 11:16:31;;;;;;;1.58;1.23;;;36.00;69.10;;;;;;5089868;28;20625;-51
2021/04/29 11:19:02;;;;;;;1.58;1.00;;;35.80;69.30;;;;;;5088509;28;20627;-50
2021/04/29 11:21:33;;;;;;;1.90;0.90;;;35.60;69.70;;;;;;5087623;28;20191;-47
2021/04/29 11:24:03;;;;;;;2.25;1.05;;;35.30;70.00;;;;;;5089339;28;20655;-50
2021/04/29 11:26:35;;;;;;;1.25;1.15;;;35.20;70.30;;;;;;5090179;28;20225;-49
2021/04/29 11:29:06;;;;;;;1.60;0.90;;;35.00;70.70;;;;;;5089855;28;20220;-51
2021/04/29 11:31:40;;;;;;;1.13;0.73;;;34.80;71.00;;;;;;5090173;28;20356;-48
2021/04/29 11:34:11;;;;;;;1.48;1.00;;;34.70;71.70;;;;;;5082793;28;20276;-48
2021/04/29 11:36:41;;;;;;;2.47;1.00;;;34.50;71.70;;;;;;5089881;28;20255;-51
2021/04/29 11:39:12;;;;;;;1.48;1.13;;;34.40;72.10;;;;;;5086599;28;20196;-48
2021/04/29 11:41:42;;;;;;;1.02;0.90;;;34.30;72.60;;;;;;5090232;28;20201;-49
2021/04/29 11:44:15;;;;;;;3.40;1.25;;;34.10;73.00;;;;;;5027560;28;20284;-52
2021/04/29 11:46:46;;;;;;;2.25;1.80;;;34.00;73.50;;;;;;4968848;28;20208;-52
2021/04/29 11:49:17;;;;;;;2.28;1.92;;;33.90;73.90;;;;;;4964132;28;20263;-52
2021/04/29 11:51:52;;;;;;;2.28;1.70;;;33.80;74.40;;;;;;4969153;28;20591;-53
2021/04/29 11:54:23;;;;;;;2.40;1.25;;;33.60;74.70;;;;;;4968917;28;20220;-55
2021/04/29 11:56:56;;;;;;;1.45;1.08;;;33.50;74.80;;;;;;4968646;28;20209;-51
2021/04/29 11:59:31;;;;;;;1.33;1.00;;;33.40;75.00;;;;;;4962774;28;20209;-52
2021/04/29 12:02:02;;;;;;;1.10;0.93;;;33.40;75.70;;;;;;4968390;28;20240;-51
2021/04/29 12:04:34;;;;;;;1.80;1.15;;;33.30;75.60;;;;;;4969511;28;20197;-53
2021/04/29 12:07:06;;;;;;;1.52;1.42;;;33.20;75.80;;;;;;4969553;28;20212;-51
2021/04/29 12:09:37;;;;;;;1.38;1.17;;;33.10;76.20;;;;;;5017878;28;20226;-53
2021/04/29 12:12:12;;;;;;;1.63;1.15;;;33.10;76.50;;;;;;5080973;28;20196;-54
2021/04/29 12:14:49;;;;;;;2.08;1.30;;;33.00;77.00;;;;;;5087952;28;20256;-51
2021/04/29 12:17:19;;;;;;;2.35;1.40;;;32.90;76.80;;;;;;5087898;28;20217;-52
2021/04/29 12:19:52;;;;;;;2.25;1.40;;;32.90;77.00;;;;;;5086306;28;20260;-54
2021/04/29 12:22:23;;;;;;;2.42;1.63;;;32.80;77.30;;;;;;5088543;28;20364;-53
2021/04/29 12:24:54;;;;;;;3.35;2.13;;;32.80;77.60;;;;;;5086862;28;20197;-53
2021/04/29 12:27:24;;;;;;;3.90;2.03;;;32.70;77.80;;;;;;5088545;28;20272;-54
2021/04/29 12:30:02;;;;;;;5.80;2.33;;;32.70;78.00;;;;;;5089155;28;20212;-54
2021/04/29 12:32:36;;;;;;;6.10;3.00;;;32.60;78.40;;;;;;5088360;28;20617;-51
2021/04/29 12:35:10;;;;;;;7.20;3.05;;;32.60;78.50;;;;;;5091666;28;20346;-48
2021/04/29 12:37:52;;;;;;;9.45;3.60;;;32.50;78.70;;;;;;5081938;28;20219;-51
2021/04/29 12:40:29;;;;;;;10.35;3.10;;;32.50;79.10;;;;;;5094357;28;20292;-49
2021/04/29 12:43:15;;;;;;;7.07;2.95;;;32.40;79.10;;;;;;5093570;28;20292;-50
2021/04/29 12:45:53;;;;;;;6.82;3.33;;;32.40;79.40;;;;;;5092854;28;20212;-53
2021/04/29 12:48:28;;;;;;;6.97;3.45;;;32.40;79.50;;;;;;5093805;28;20246;-50
2021/04/29 12:51:12;;;;;;;6.32;3.20;;;32.30;79.50;;;;;;5094214;28;20263;-52
2021/04/29 12:53:54;;;;;;;4.55;2.50;;;32.30;79.80;;;;;;5093680;28;20275;-50
2021/04/29 12:56:25;;;;;;;3.85;2.47;;;32.30;79.70;;;;;;5093715;28;20193;-50
2021/04/29 12:58:56;;;;;;;4.07;2.53;;;32.20;79.70;;;;;;5093611;28;20188;-54
2021/04/29 13:01:26;;;;;;;3.15;2.38;;;32.20;80.00;;;;;;5093459;28;20228;-52
2021/04/29 13:03:57;;;;;;;3.22;2.22;;;32.10;80.20;;;;;;5071877;28;20205;-53
2021/04/29 13:06:28;;;;;;;3.38;2.50;;;32.10;80.30;;;;;;5073844;28;20228;-53
2021/04/29 13:09:02;;;;;;;5.03;2.50;;;32.10;80.70;;;;;;5072820;28;20236;-53
2021/04/29 13:11:38;;;;;;;3.45;2.33;;;32.10;80.90;;;;;;5072925;28;20197;-50